Time;durP1;ratioP1;P1;durP2;ratioP2;P2;SDS_P1;SDS_P2;PMS_P1;PMS_P2;Temp;Humidity;BMP_temperature;BMP_pressure;BME280_temperature;BME280_humidity;BME280_pressure;Samples;Min_cycle;Max_cycle;Signal;HPM_P1;HPM_P2
2021/08/11 00:00:17;;;;;;;3.87;3.57;;;18.80;99.90;;;;;;5115256;27;20468;-64
2021/08/11 00:02:45;;;;;;;3.10;2.90;;;18.80;99.90;;;;;;5115423;27;20463;-64
2021/08/11 00:05:12;;;;;;;4.13;3.70;;;18.80;99.90;;;;;;5115531;27;20460;-64
2021/08/11 00:07:41;;;;;;;3.60;3.30;;;18.80;99.90;;;;;;5115001;27;20459;-64
2021/08/11 00:10:10;;;;;;;4.37;3.97;;;18.80;99.90;;;;;;5115404;27;20951;-64
2021/08/11 00:12:37;;;;;;;4.67;4.27;;;18.80;99.90;;;;;;5114932;27;20463;-64
2021/08/11 00:15:05;;;;;;;3.63;3.33;;;18.80;99.90;;;;;;5115384;27;20463;-63
2021/08/11 00:17:32;;;;;;;3.57;3.30;;;18.70;99.90;;;;;;5114620;27;20970;-63
2021/08/11 00:20:00;;;;;;;3.80;3.50;;;18.70;99.90;;;;;;5115274;27;20810;-64
2021/08/11 00:22:28;;;;;;;3.40;3.10;;;18.70;99.90;;;;;;5114770;27;20464;-64
2021/08/11 00:24:55;;;;;;;3.10;2.80;;;18.80;99.90;;;;;;5114453;27;20467;-64
2021/08/11 00:27:22;;;;;;;6.00;3.80;;;18.70;99.90;;;;;;5134926;27;20809;-63
2021/08/11 00:29:49;;;;;;;4.00;3.60;;;18.70;99.90;;;;;;5135458;27;20964;-63
2021/08/11 00:32:16;;;;;;;4.43;4.03;;;18.70;99.90;;;;;;5135614;27;20473;-64
2021/08/11 00:34:43;;;;;;;8.57;3.67;;;18.70;99.90;;;;;;5134900;27;20466;-63
2021/08/11 00:37:11;;;;;;;5.00;3.10;;;18.70;99.90;;;;;;5135485;27;20460;-63
2021/08/11 00:39:39;;;;;;;3.50;3.20;;;18.70;99.90;;;;;;5134751;27;20463;-63
2021/08/11 00:42:06;;;;;;;3.90;3.60;;;18.70;99.90;;;;;;5135376;27;20872;-63
2021/08/11 00:44:33;;;;;;;3.37;3.17;;;18.70;99.90;;;;;;5134975;27;20467;-63
2021/08/11 00:47:00;;;;;;;3.13;2.83;;;18.70;99.90;;;;;;5119658;27;20535;-63
2021/08/11 00:49:28;;;;;;;3.93;3.53;;;18.70;99.90;;;;;;5113719;27;20476;-64
2021/08/11 00:51:55;;;;;;;4.40;4.10;;;18.70;99.90;;;;;;5114585;27;20487;-63
2021/08/11 00:54:23;;;;;;;3.97;3.67;;;18.60;99.90;;;;;;5114038;27;20469;-64
2021/08/11 00:56:54;;;;;;;3.53;3.23;;;18.60;99.90;;;;;;5114500;27;20478;-63
2021/08/11 00:59:23;;;;;;;7.17;6.47;;;18.60;99.90;;;;;;5113718;27;20492;-63
2021/08/11 01:01:50;;;;;;;4.90;4.50;;;18.60;99.90;;;;;;5114355;27;20495;-63
2021/08/11 01:04:18;;;;;;;3.67;3.40;;;18.60;99.90;;;;;;5114172;27;20467;-63
2021/08/11 01:06:46;;;;;;;7.53;3.93;;;18.60;99.90;;;;;;5113973;27;20456;-63
2021/08/11 01:09:14;;;;;;;4.20;3.80;;;18.60;99.90;;;;;;5114180;27;20469;-64
2021/08/11 01:11:44;;;;;;;4.70;4.30;;;18.60;99.90;;;;;;5113614;27;20478;-64
2021/08/11 01:14:13;;;;;;;6.60;6.00;;;18.60;99.90;;;;;;5114012;27;21018;-64
2021/08/11 01:16:40;;;;;;;5.17;4.67;;;18.60;99.90;;;;;;5113595;27;20464;-64
2021/08/11 01:19:07;;;;;;;4.53;4.13;;;18.60;99.90;;;;;;5113773;27;20507;-64
2021/08/11 01:21:40;;;;;;;4.83;3.70;;;18.50;99.90;;;;;;5113725;27;20511;-64
2021/08/11 01:24:14;;;;;;;4.67;4.27;;;18.50;99.90;;;;;;5113975;27;20467;-64
2021/08/11 01:27:07;;;;;;;5.53;5.03;;;18.50;99.90;;;;;;5127951;27;20462;-65
2021/08/11 01:29:55;;;;;;;7.70;6.03;;;18.50;99.90;;;;;;5133787;27;20474;-64
2021/08/11 01:32:33;;;;;;;4.93;4.50;;;18.50;99.90;;;;;;5134206;27;20462;-64
2021/08/11 01:35:03;;;;;;;4.63;4.23;;;18.50;99.90;;;;;;5134822;27;20456;-64
2021/08/11 01:37:32;;;;;;;5.67;5.17;;;18.40;99.90;;;;;;5133276;27;21753;-64
2021/08/11 01:40:02;;;;;;;8.07;5.40;;;18.40;99.90;;;;;;5134116;27;20466;-64
2021/08/11 01:42:32;;;;;;;5.30;4.80;;;18.40;99.90;;;;;;5133609;27;20790;-64
2021/08/11 01:45:05;;;;;;;5.70;5.20;;;18.40;99.90;;;;;;5134035;27;20470;-64
2021/08/11 01:47:37;;;;;;;5.27;4.77;;;18.40;99.90;;;;;;5113669;27;20513;-64
2021/08/11 01:50:08;;;;;;;5.80;5.30;;;18.40;99.90;;;;;;5113409;27;20467;-64
2021/08/11 01:52:40;;;;;;;5.27;4.70;;;18.40;99.90;;;;;;5113262;27;20934;-64
2021/08/11 01:55:09;;;;;;;5.57;5.03;;;18.30;99.90;;;;;;5113577;27;20536;-64
2021/08/11 01:57:38;;;;;;;5.80;5.30;;;18.30;99.90;;;;;;5113106;27;21225;-64
2021/08/11 02:00:06;;;;;;;5.90;5.40;;;18.30;99.90;;;;;;5113336;27;20817;-64
2021/08/11 02:02:37;;;;;;;5.80;5.30;;;18.30;99.90;;;;;;5112869;27;20470;-64
2021/08/11 02:05:06;;;;;;;6.00;5.40;;;18.30;99.90;;;;;;5113393;27;21001;-64
2021/08/11 02:07:34;;;;;;;5.17;4.77;;;18.30;99.90;;;;;;5112841;27;20461;-65
2021/08/11 02:10:01;;;;;;;8.30;5.07;;;18.30;99.90;;;;;;5113321;27;20473;-64
2021/08/11 02:12:29;;;;;;;5.30;4.80;;;18.20;99.90;;;;;;5112798;27;20458;-64
2021/08/11 02:14:57;;;;;;;4.93;4.53;;;18.20;99.90;;;;;;5113257;27;20463;-64
2021/08/11 02:17:24;;;;;;;5.07;4.67;;;18.20;99.90;;;;;;5112705;27;20463;-64
2021/08/11 02:19:51;;;;;;;5.30;4.80;;;18.20;99.90;;;;;;5113205;27;20463;-64
2021/08/11 02:22:19;;;;;;;5.90;4.93;;;18.20;99.90;;;;;;5112692;27;20467;-64
2021/08/11 02:24:47;;;;;;;5.57;5.07;;;18.20;99.90;;;;;;5113074;27;20802;-64
2021/08/11 02:27:19;;;;;;;4.83;4.33;;;18.20;99.90;;;;;;5131943;27;20464;-64
2021/08/11 02:29:50;;;;;;;6.30;5.80;;;18.20;99.90;;;;;;5133512;27;20474;-62
2021/08/11 02:32:22;;;;;;;6.30;5.70;;;18.20;99.90;;;;;;5133174;27;20470;-65
2021/08/11 02:34:58;;;;;;;8.90;8.00;;;18.20;99.90;;;;;;5133671;27;21003;-64
2021/08/11 02:37:35;;;;;;;6.60;6.00;;;18.10;99.90;;;;;;5133258;27;20483;-63
2021/08/11 02:40:08;;;;;;;6.53;6.03;;;18.10;99.90;;;;;;5133473;27;20462;-65
2021/08/11 02:42:40;;;;;;;5.50;5.10;;;18.10;99.90;;;;;;5132796;27;20466;-62
2021/08/11 02:45:11;;;;;;;7.57;5.73;;;18.10;99.90;;;;;;5133443;27;20487;-63
2021/08/11 02:47:39;;;;;;;6.47;4.80;;;18.10;99.90;;;;;;5133090;27;20463;-62
2021/08/11 02:50:09;;;;;;;7.90;5.50;;;18.10;99.90;;;;;;5137394;27;21037;-64
2021/08/11 02:52:38;;;;;;;6.13;5.13;;;18.10;99.90;;;;;;5127885;27;20474;-64
2021/08/11 02:55:08;;;;;;;7.77;5.80;;;18.10;99.90;;;;;;5117114;27;20823;-64
2021/08/11 02:57:35;;;;;;;5.70;5.27;;;18.10;99.90;;;;;;5116323;27;20956;-64
2021/08/11 03:00:03;;;;;;;5.40;4.90;;;18.10;99.90;;;;;;5116764;27;20470;-64
2021/08/11 03:02:31;;;;;;;5.77;4.90;;;18.00;99.90;;;;;;5116441;27;20465;-65
2021/08/11 03:04:58;;;;;;;5.77;5.20;;;18.00;99.90;;;;;;5116703;27;20473;-64
2021/08/11 03:07:26;;;;;;;5.80;5.30;;;18.00;99.90;;;;;;5116348;27;20463;-64
2021/08/11 03:09:54;;;;;;;6.93;5.73;;;18.00;99.90;;;;;;5116559;27;20477;-64
2021/08/11 03:12:22;;;;;;;5.40;4.90;;;18.00;99.90;;;;;;5116204;27;20976;-64
2021/08/11 03:14:50;;;;;;;6.17;5.67;;;18.00;99.90;;;;;;5116318;27;20462;-64
2021/08/11 03:17:17;;;;;;;6.00;5.50;;;18.00;99.90;;;;;;5116181;27;20474;-64
2021/08/11 03:19:45;;;;;;;7.30;6.60;;;18.00;99.90;;;;;;5116240;27;20546;-64
2021/08/11 03:22:12;;;;;;;7.10;6.40;;;18.00;99.90;;;;;;5116199;27;20524;-64
2021/08/11 03:24:40;;;;;;;6.70;6.17;;;18.00;99.90;;;;;;5115970;27;20468;-64
2021/08/11 03:27:08;;;;;;;8.30;6.60;;;17.90;99.90;;;;;;5134364;27;20465;-64
2021/08/11 03:29:35;;;;;;;6.63;6.03;;;17.90;99.90;;;;;;5136228;27;20813;-64
2021/08/11 03:32:02;;;;;;;7.13;6.63;;;17.90;99.90;;;;;;5136923;27;20466;-64
2021/08/11 03:34:29;;;;;;;6.70;5.90;;;17.90;99.90;;;;;;5136375;27;20950;-64
2021/08/11 03:36:57;;;;;;;6.97;6.37;;;17.90;99.90;;;;;;5136854;27;20937;-64
2021/08/11 03:39:24;;;;;;;6.30;5.70;;;17.80;99.90;;;;;;5136058;27;20481;-65
2021/08/11 03:41:51;;;;;;;6.77;6.07;;;17.90;99.90;;;;;;5136486;27;20459;-65
2021/08/11 03:44:19;;;;;;;7.10;6.20;;;17.80;99.90;;;;;;5136427;27;20469;-64
2021/08/11 03:46:46;;;;;;;7.43;6.50;;;17.90;99.90;;;;;;5136074;27;20468;-64
2021/08/11 03:49:13;;;;;;;7.13;6.50;;;17.80;99.90;;;;;;5135979;27;20492;-64
2021/08/11 03:51:40;;;;;;;7.40;6.80;;;17.80;99.90;;;;;;5134717;27;20811;-64
2021/08/11 03:54:07;;;;;;;7.13;6.43;;;17.80;99.90;;;;;;5115649;27;20833;-64
2021/08/11 03:56:33;;;;;;;8.00;7.30;;;17.80;99.90;;;;;;5115219;27;20468;-64
2021/08/11 03:59:00;;;;;;;7.50;6.80;;;17.80;99.90;;;;;;5115515;27;20475;-64
2021/08/11 04:01:29;;;;;;;7.40;6.70;;;17.80;99.90;;;;;;5114260;27;20803;-65
2021/08/11 04:03:56;;;;;;;8.77;7.87;;;17.80;99.90;;;;;;5115461;27;20464;-65
2021/08/11 04:06:23;;;;;;;8.77;7.30;;;17.80;99.90;;;;;;5115272;27;20466;-64
2021/08/11 04:08:49;;;;;;;7.00;6.30;;;17.80;99.90;;;;;;5115321;27;20956;-64
2021/08/11 04:11:16;;;;;;;7.27;6.73;;;17.80;99.90;;;;;;5115284;27;20480;-64
2021/08/11 04:13:43;;;;;;;7.93;6.87;;;17.70;99.90;;;;;;5114917;27;20467;-64
2021/08/11 04:16:10;;;;;;;7.90;7.20;;;17.80;99.90;;;;;;5115374;27;20467;-64
2021/08/11 04:18:39;;;;;;;8.23;7.23;;;17.80;99.90;;;;;;5114685;27;20818;-64
2021/08/11 04:21:05;;;;;;;8.03;7.27;;;17.80;99.90;;;;;;5115281;27;20467;-65
2021/08/11 04:23:32;;;;;;;8.60;7.00;;;17.80;99.90;;;;;;5114804;27;20470;-64
2021/08/11 04:26:00;;;;;;;9.43;8.57;;;17.80;99.90;;;;;;5123631;27;20812;-64
2021/08/11 04:28:26;;;;;;;9.03;7.87;;;17.80;99.90;;;;;;5134974;27;20469;-64
2021/08/11 04:30:57;;;;;;;8.73;7.93;;;17.80;99.90;;;;;;5135380;27;20462;-66
2021/08/11 04:33:23;;;;;;;9.67;8.77;;;17.80;99.90;;;;;;5135609;27;20464;-63
2021/08/11 04:35:52;;;;;;;9.33;7.90;;;17.80;99.90;;;;;;5135348;27;20967;-64
2021/08/11 04:38:19;;;;;;;8.57;7.80;;;17.80;99.90;;;;;;5135223;27;20506;-63
2021/08/11 04:40:46;;;;;;;8.87;8.07;;;17.80;99.90;;;;;;5134907;27;20474;-63
2021/08/11 04:43:13;;;;;;;9.57;8.77;;;17.80;99.90;;;;;;5135470;27;20527;-63
2021/08/11 04:45:41;;;;;;;10.80;9.60;;;17.80;99.90;;;;;;5134745;27;20471;-64
2021/08/11 04:48:08;;;;;;;10.23;9.33;;;17.80;99.90;;;;;;5135077;27;20475;-64
2021/08/11 04:50:35;;;;;;;8.63;7.83;;;17.80;99.90;;;;;;5134801;27;20982;-64
2021/08/11 04:53:04;;;;;;;9.13;8.23;;;17.80;99.90;;;;;;5122248;27;20536;-63
2021/08/11 04:55:30;;;;;;;9.20;8.40;;;17.80;99.90;;;;;;5114319;27;20811;-63
2021/08/11 04:58:01;;;;;;;9.77;8.87;;;17.80;99.90;;;;;;5114309;27;20470;-65
2021/08/11 05:00:28;;;;;;;9.40;8.50;;;17.80;99.90;;;;;;5113781;27;20466;-64
2021/08/11 05:02:55;;;;;;;8.73;8.03;;;17.90;99.90;;;;;;5114542;27;20478;-64
2021/08/11 05:05:23;;;;;;;10.23;9.27;;;17.90;99.90;;;;;;5114313;27;20469;-64
2021/08/11 05:07:51;;;;;;;9.10;8.30;;;17.90;99.90;;;;;;5113747;27;20471;-64
2021/08/11 05:10:20;;;;;;;9.30;8.50;;;17.90;99.90;;;;;;5114468;27;20482;-64
2021/08/11 05:12:47;;;;;;;11.90;10.77;;;17.90;99.90;;;;;;5113523;27;20474;-64
2021/08/11 05:15:14;;;;;;;11.57;9.70;;;18.00;99.90;;;;;;5113959;27;20468;-64
2021/08/11 05:17:41;;;;;;;11.83;10.70;;;18.00;99.90;;;;;;5113697;27;20976;-64
2021/08/11 05:20:09;;;;;;;10.80;9.80;;;18.10;99.90;;;;;;5114163;27;20486;-64
2021/08/11 05:22:36;;;;;;;11.57;10.47;;;18.10;99.90;;;;;;5113628;27;20463;-64
2021/08/11 05:25:04;;;;;;;11.50;10.50;;;18.20;99.90;;;;;;5114646;27;20779;-64
2021/08/11 05:27:32;;;;;;;12.00;11.00;;;18.20;99.90;;;;;;5133928;27;20482;-64
2021/08/11 05:29:59;;;;;;;10.37;9.57;;;18.20;99.90;;;;;;5134294;27;20809;-64
2021/08/11 05:32:26;;;;;;;10.37;9.37;;;18.30;99.90;;;;;;5134504;27;20467;-64
2021/08/11 05:34:53;;;;;;;13.63;12.40;;;18.30;99.90;;;;;;5133884;27;20477;-64
2021/08/11 05:37:20;;;;;;;14.07;12.77;;;18.40;99.90;;;;;;5124712;27;20467;-64
2021/08/11 05:39:47;;;;;;;12.73;11.60;;;18.50;99.90;;;;;;5113193;27;20471;-64
2021/08/11 05:42:14;;;;;;;13.00;11.70;;;18.50;99.90;;;;;;5113443;27;20460;-65
2021/08/11 05:44:42;;;;;;;15.10;13.37;;;18.50;99.90;;;;;;5113282;27;20460;-64
2021/08/11 05:47:11;;;;;;;14.20;12.80;;;18.60;99.90;;;;;;5113497;27;20478;-64
2021/08/11 05:49:38;;;;;;;13.07;11.87;;;18.60;99.90;;;;;;5112948;27;20465;-64
2021/08/11 05:52:06;;;;;;;14.17;12.73;;;18.60;99.90;;;;;;5113381;27;20479;-64
2021/08/11 05:54:34;;;;;;;12.87;11.67;;;18.70;99.90;;;;;;5113059;27;20472;-64
2021/08/11 05:57:01;;;;;;;16.27;12.60;;;18.70;99.90;;;;;;5113324;27;20983;-64
2021/08/11 05:59:28;;;;;;;12.80;11.50;;;18.70;99.90;;;;;;5113152;27;20545;-64
2021/08/11 06:01:56;;;;;;;11.20;10.10;;;18.70;99.90;;;;;;5112972;27;20460;-64
2021/08/11 06:04:24;;;;;;;11.23;10.23;;;18.80;99.90;;;;;;5113106;27;20460;-63
2021/08/11 06:06:52;;;;;;;13.67;12.47;;;18.80;99.90;;;;;;5113048;27;20465;-64
2021/08/11 06:09:19;;;;;;;12.20;11.17;;;18.90;99.90;;;;;;5113223;27;20480;-64
2021/08/11 06:11:46;;;;;;;11.03;9.90;;;18.90;99.90;;;;;;5112677;27;20456;-63
2021/08/11 06:14:13;;;;;;;14.17;12.87;;;18.90;99.90;;;;;;5113301;27;20472;-64
2021/08/11 06:16:40;;;;;;;13.37;12.07;;;19.00;99.90;;;;;;5112843;27;20966;-63
2021/08/11 06:19:08;;;;;;;12.63;11.40;;;19.00;99.90;;;;;;5112885;27;20468;-64
2021/08/11 06:21:36;;;;;;;12.80;11.60;;;19.00;99.90;;;;;;5112973;27;20471;-64
2021/08/11 06:24:03;;;;;;;13.73;12.53;;;19.10;99.90;;;;;;5118038;27;20459;-64
2021/08/11 06:26:30;;;;;;;14.10;12.20;;;19.10;99.90;;;;;;5132752;27;20835;-64
2021/08/11 06:28:57;;;;;;;12.63;11.53;;;19.20;99.90;;;;;;5140037;27;20459;-65
2021/08/11 06:31:24;;;;;;;13.10;11.90;;;19.20;99.90;;;;;;5140428;27;20462;-64
2021/08/11 06:33:52;;;;;;;12.30;11.13;;;19.20;99.90;;;;;;5139962;27;20467;-64
2021/08/11 06:36:20;;;;;;;12.00;10.83;;;19.30;99.90;;;;;;5139521;27;20538;-64
2021/08/11 06:38:47;;;;;;;13.57;12.20;;;19.40;99.90;;;;;;5119341;27;20472;-63
2021/08/11 06:41:16;;;;;;;13.53;12.13;;;19.40;99.90;;;;;;5119703;27;20473;-63
2021/08/11 06:43:44;;;;;;;13.97;12.60;;;19.50;99.90;;;;;;5119353;27;20468;-63
2021/08/11 06:46:12;;;;;;;15.50;14.10;;;19.50;99.90;;;;;;5119850;27;20468;-63
2021/08/11 06:48:39;;;;;;;12.37;11.23;;;19.60;99.90;;;;;;5119050;27;20475;-64
2021/08/11 06:51:08;;;;;;;14.03;12.77;;;19.60;99.90;;;;;;5120007;27;20464;-65
2021/08/11 06:53:36;;;;;;;16.97;14.07;;;19.70;99.90;;;;;;5119540;27;20603;-63
2021/08/11 06:56:03;;;;;;;13.83;12.50;;;19.80;99.90;;;;;;5119387;27;20456;-64
2021/08/11 06:58:30;;;;;;;13.37;12.17;;;19.80;99.90;;;;;;5119639;27;20472;-64
2021/08/11 07:00:59;;;;;;;13.70;12.00;;;19.90;99.90;;;;;;5119056;27;20475;-64
2021/08/11 07:03:26;;;;;;;12.03;10.93;;;19.90;99.90;;;;;;5119746;27;20518;-64
2021/08/11 07:05:53;;;;;;;12.63;11.57;;;20.00;99.90;;;;;;5119328;27;20809;-64
2021/08/11 07:08:21;;;;;;;12.10;11.10;;;20.00;99.90;;;;;;5119468;27;20468;-65
2021/08/11 07:10:49;;;;;;;13.83;12.63;;;20.10;99.90;;;;;;5119333;27;20500;-64
2021/08/11 07:13:17;;;;;;;10.60;9.70;;;20.10;99.90;;;;;;5119600;27;20555;-63
2021/08/11 07:15:44;;;;;;;11.27;9.80;;;20.20;99.90;;;;;;5118890;27;20460;-63
2021/08/11 07:18:15;;;;;;;11.50;10.47;;;20.30;99.90;;;;;;5119519;27;20793;-63
2021/08/11 07:20:42;;;;;;;9.77;8.90;;;20.30;99.90;;;;;;5119180;27;20464;-63
2021/08/11 07:23:10;;;;;;;10.97;9.77;;;20.40;99.90;;;;;;5119519;27;20460;-63
2021/08/11 07:25:36;;;;;;;10.73;9.90;;;20.40;99.90;;;;;;5124742;27;20463;-65
2021/08/11 07:28:05;;;;;;;11.73;10.60;;;20.50;99.90;;;;;;5139528;27;20960;-64
2021/08/11 07:30:32;;;;;;;10.20;8.00;;;20.50;99.90;;;;;;5139921;27;20479;-64
2021/08/11 07:32:59;;;;;;;10.03;9.13;;;20.70;99.90;;;;;;5139543;27;20459;-65
2021/08/11 07:35:26;;;;;;;9.50;8.60;;;20.80;99.90;;;;;;5137571;27;20937;-64
2021/08/11 07:37:55;;;;;;;10.40;9.40;;;20.90;99.90;;;;;;5136060;27;20460;-64
2021/08/11 07:40:24;;;;;;;11.13;10.03;;;21.00;99.90;;;;;;5136579;27;20474;-64
2021/08/11 07:42:51;;;;;;;10.23;9.33;;;21.10;99.90;;;;;;5136181;27;20460;-64
2021/08/11 07:45:20;;;;;;;9.90;9.10;;;21.20;99.90;;;;;;5136365;27;20455;-64
2021/08/11 07:47:48;;;;;;;10.03;9.13;;;21.20;99.90;;;;;;5135940;27;20475;-64
2021/08/11 07:50:17;;;;;;;10.43;9.47;;;21.20;99.90;;;;;;5136471;27;20463;-64
2021/08/11 07:52:44;;;;;;;8.77;7.80;;;21.20;99.90;;;;;;5125610;27;20942;-64
2021/08/11 07:55:13;;;;;;;8.57;7.87;;;21.30;99.90;;;;;;5115825;27;20475;-64
2021/08/11 07:57:40;;;;;;;8.23;7.50;;;21.30;99.90;;;;;;5115570;27;20483;-64
2021/08/11 08:00:09;;;;;;;7.43;6.83;;;21.30;99.90;;;;;;5115026;27;20460;-64
2021/08/11 08:02:37;;;;;;;9.23;8.00;;;21.40;99.90;;;;;;5115743;27;20471;-64
2021/08/11 08:05:05;;;;;;;9.13;8.33;;;21.30;99.90;;;;;;5115123;27;20457;-64
2021/08/11 08:07:32;;;;;;;10.70;8.20;;;21.40;99.90;;;;;;5115425;27;20472;-64
2021/08/11 08:10:00;;;;;;;8.17;7.47;;;21.40;99.90;;;;;;5115003;27;20468;-65
2021/08/11 08:12:27;;;;;;;7.77;7.17;;;21.50;99.90;;;;;;5115368;27;20475;-64
2021/08/11 08:14:54;;;;;;;9.70;8.27;;;21.50;99.90;;;;;;5114741;27;20468;-63
2021/08/11 08:17:21;;;;;;;9.33;8.43;;;21.60;99.90;;;;;;5115483;27;20798;-63
2021/08/11 08:19:49;;;;;;;10.13;9.33;;;21.60;99.90;;;;;;5114778;27;20573;-63
2021/08/11 08:22:17;;;;;;;9.27;8.37;;;21.60;99.90;;;;;;5115214;27;20464;-63
2021/08/11 08:24:44;;;;;;;8.97;8.07;;;21.70;99.90;;;;;;5115307;27;20472;-63
2021/08/11 08:27:11;;;;;;;7.93;7.23;;;21.70;99.90;;;;;;5133561;27;21497;-63
2021/08/11 08:29:39;;;;;;;7.90;7.20;;;21.60;99.90;;;;;;5135483;27;20463;-63
2021/08/11 08:32:06;;;;;;;8.07;7.30;;;21.60;99.90;;;;;;5135101;27;20470;-64
2021/08/11 08:34:33;;;;;;;8.50;7.80;;;21.70;99.90;;;;;;5135518;27;20520;-63
2021/08/11 08:37:02;;;;;;;7.20;6.50;;;21.80;99.90;;;;;;5135079;27;20475;-63
2021/08/11 08:39:28;;;;;;;6.90;6.30;;;21.80;99.90;;;;;;5135477;27;20460;-64
2021/08/11 08:41:56;;;;;;;7.67;7.00;;;21.80;99.90;;;;;;5134832;27;20468;-64
2021/08/11 08:44:23;;;;;;;8.37;7.47;;;21.80;99.90;;;;;;5135169;27;20463;-63
2021/08/11 08:46:52;;;;;;;6.20;5.70;;;21.80;99.90;;;;;;5134556;27;20460;-63
2021/08/11 08:49:20;;;;;;;7.10;6.50;;;21.80;99.90;;;;;;5135010;27;20463;-63
2021/08/11 08:51:49;;;;;;;6.67;6.07;;;21.80;99.90;;;;;;5131183;27;20533;-63
2021/08/11 08:54:21;;;;;;;6.50;5.90;;;21.80;99.90;;;;;;5114385;27;20444;-63
2021/08/11 08:56:48;;;;;;;9.90;7.20;;;21.90;99.90;;;;;;5114514;27;20905;-64
2021/08/11 08:59:16;;;;;;;7.30;6.03;;;21.90;99.90;;;;;;5113748;27;20950;-64
2021/08/11 09:01:43;;;;;;;7.77;7.17;;;21.90;99.90;;;;;;5114516;27;20468;-64
2021/08/11 09:04:10;;;;;;;8.10;6.70;;;21.90;99.90;;;;;;5113786;27;20830;-64
2021/08/11 09:06:38;;;;;;;7.60;6.90;;;21.90;99.90;;;;;;5114364;27;20472;-65
2021/08/11 09:09:07;;;;;;;6.23;5.77;;;21.90;99.90;;;;;;5113825;27;21080;-64
2021/08/11 09:11:37;;;;;;;6.80;6.20;;;21.90;99.90;;;;;;5114354;27;20468;-64
2021/08/11 09:14:20;;;;;;;6.77;6.10;;;21.90;99.90;;;;;;5113680;27;20487;-64
2021/08/11 09:16:49;;;;;;;6.93;6.33;;;21.90;99.90;;;;;;5114057;27;20543;-64
2021/08/11 09:19:16;;;;;;;7.40;6.70;;;21.90;99.90;;;;;;5113627;27;20475;-64
2021/08/11 09:21:58;;;;;;;6.20;5.70;;;21.80;99.90;;;;;;5113857;27;20484;-64
2021/08/11 09:24:26;;;;;;;6.50;5.90;;;21.90;99.90;;;;;;5113724;27;20471;-63
2021/08/11 09:26:55;;;;;;;6.10;5.60;;;21.90;99.90;;;;;;5130024;27;20456;-64
2021/08/11 09:29:22;;;;;;;6.20;5.70;;;21.90;99.90;;;;;;5133792;27;20460;-64
2021/08/11 09:31:49;;;;;;;7.00;5.70;;;21.90;99.90;;;;;;5134440;27;20467;-64
2021/08/11 09:34:16;;;;;;;6.17;5.07;;;21.90;99.90;;;;;;5134036;27;20474;-64
2021/08/11 09:36:48;;;;;;;4.53;4.13;;;21.90;99.90;;;;;;5134292;27;20486;-64
2021/08/11 09:39:16;;;;;;;6.00;4.67;;;22.00;99.90;;;;;;5133869;27;20471;-64
2021/08/11 09:41:59;;;;;;;4.97;4.53;;;22.00;99.90;;;;;;5134249;27;20476;-64
2021/08/11 09:44:27;;;;;;;8.27;7.53;;;22.00;99.90;;;;;;5133750;27;20900;-64
2021/08/11 09:46:54;;;;;;;5.80;5.30;;;22.00;99.90;;;;;;5134214;27;20486;-64
2021/08/11 09:49:24;;;;;;;5.50;4.90;;;22.10;99.90;;;;;;5133202;27;20471;-64
2021/08/11 09:51:55;;;;;;;4.60;4.20;;;22.10;99.90;;;;;;5129658;27;20535;-64
2021/08/11 09:54:23;;;;;;;5.70;5.20;;;22.10;99.20;;;;;;5113036;27;22717;-64
2021/08/11 09:56:50;;;;;;;4.93;4.53;;;22.10;99.20;;;;;;5113318;27;20502;-63
2021/08/11 09:59:18;;;;;;;4.80;4.50;;;22.10;99.20;;;;;;5112061;27;20480;-63
2021/08/11 10:01:45;;;;;;;7.30;5.37;;;22.20;99.30;;;;;;5113146;27;20464;-64
2021/08/11 10:04:13;;;;;;;4.87;4.33;;;22.20;99.20;;;;;;5112817;27;20496;-63
2021/08/11 10:06:42;;;;;;;4.70;4.30;;;22.30;99.10;;;;;;5113424;27;20464;-63
2021/08/11 10:09:15;;;;;;;3.87;3.57;;;22.40;99.00;;;;;;5112739;27;20487;-64
2021/08/11 10:11:44;;;;;;;4.87;4.47;;;22.50;98.30;;;;;;5112948;27;20467;-64
2021/08/11 10:14:13;;;;;;;5.00;4.60;;;22.60;98.00;;;;;;5112517;27;20522;-63
2021/08/11 10:16:43;;;;;;;4.80;4.37;;;22.60;97.60;;;;;;5113063;27;20452;-63
2021/08/11 10:19:12;;;;;;;4.57;4.27;;;22.70;97.50;;;;;;5112563;27;20460;-64
2021/08/11 10:21:44;;;;;;;5.50;4.97;;;22.70;97.50;;;;;;5112867;27;20461;-64
2021/08/11 10:24:11;;;;;;;5.00;4.50;;;22.70;97.60;;;;;;5112893;27;20521;-64
2021/08/11 10:26:39;;;;;;;4.93;4.40;;;22.80;96.70;;;;;;5127042;27;20456;-64
2021/08/11 10:29:07;;;;;;;4.87;4.40;;;22.90;96.40;;;;;;5132888;27;20467;-65
2021/08/11 10:31:34;;;;;;;6.00;5.50;;;22.90;96.30;;;;;;5133561;27;20497;-64
2021/08/11 10:34:03;;;;;;;5.87;5.37;;;23.00;96.60;;;;;;5133526;27;21021;-64
2021/08/11 10:36:31;;;;;;;7.37;5.40;;;23.00;96.60;;;;;;5133174;27;20455;-64
2021/08/11 10:39:04;;;;;;;5.97;5.47;;;23.00;97.00;;;;;;5133614;27;20563;-64
2021/08/11 10:41:32;;;;;;;4.60;4.30;;;23.00;97.10;;;;;;5133042;27;21227;-64
2021/08/11 10:44:01;;;;;;;5.57;5.10;;;23.00;97.10;;;;;;5133319;27;20464;-64
2021/08/11 10:46:35;;;;;;;6.17;5.63;;;23.00;97.00;;;;;;5133167;27;20460;-64
2021/08/11 10:49:05;;;;;;;5.43;5.00;;;23.00;96.90;;;;;;5133357;27;20467;-64
2021/08/11 10:51:40;;;;;;;7.07;4.73;;;23.10;96.90;;;;;;5131184;27;21225;-64
2021/08/11 10:54:08;;;;;;;5.07;4.40;;;23.10;96.80;;;;;;5112853;27;20475;-64
2021/08/11 10:56:46;;;;;;;5.00;4.30;;;23.20;96.50;;;;;;5112489;27;20444;-65
2021/08/11 10:59:45;;;;;;;4.27;3.90;;;23.20;96.50;;;;;;5112314;27;20475;-64
2021/08/11 11:02:47;;;;;;;4.90;4.50;;;23.10;96.30;;;;;;5112586;27;20869;-64
2021/08/11 11:06:01;;;;;;;5.27;4.77;;;23.10;96.60;;;;;;5111069;27;20464;-64
2021/08/11 11:08:37;;;;;;;4.87;4.50;;;23.10;96.30;;;;;;5111494;27;20810;-64
2021/08/11 11:11:38;;;;;;;5.17;4.27;;;23.10;95.70;;;;;;5115931;27;20463;-64
2021/08/11 11:14:07;;;;;;;9.27;5.67;;;23.20;95.30;;;;;;5116561;27;20487;-64
2021/08/11 11:17:10;;;;;;;4.50;4.10;;;23.30;95.10;;;;;;5116437;27;20461;-64
2021/08/11 11:20:28;;;;;;;6.17;4.30;;;23.30;95.20;;;;;;5116473;27;20786;-64
2021/08/11 11:23:00;;;;;;;4.47;4.17;;;23.40;94.80;;;;;;5115741;27;20460;-63
2021/08/11 11:26:07;;;;;;;4.60;4.20;;;23.40;94.20;;;;;;5120036;27;20455;-63
2021/08/11 11:28:55;;;;;;;4.67;4.27;;;23.40;94.40;;;;;;5136495;27;20519;-63
2021/08/11 11:31:39;;;;;;;4.73;4.37;;;23.40;94.40;;;;;;5120197;27;20549;-64
2021/08/11 11:34:29;;;;;;;4.37;4.07;;;23.50;94.50;;;;;;5115983;27;20456;-64
2021/08/11 11:37:28;;;;;;;4.30;3.90;;;23.50;94.20;;;;;;5115934;27;20902;-64
2021/08/11 11:40:05;;;;;;;4.17;3.77;;;23.40;93.40;;;;;;5115288;27;20488;-64
2021/08/11 11:42:32;;;;;;;4.70;4.30;;;23.40;93.10;;;;;;5115694;27;20472;-64
2021/08/11 11:45:02;;;;;;;4.50;4.10;;;23.40;93.00;;;;;;5115313;27;20472;-64
2021/08/11 11:48:15;;;;;;;4.90;4.50;;;23.40;93.00;;;;;;5115789;27;20535;-64
2021/08/11 11:50:46;;;;;;;4.93;4.10;;;23.40;92.90;;;;;;5115613;27;20586;-64
2021/08/11 11:53:25;;;;;;;4.43;4.13;;;23.40;93.30;;;;;;5115525;27;20517;-64
2021/08/11 11:55:53;;;;;;;4.13;3.83;;;23.30;93.30;;;;;;5115381;27;20593;-65
2021/08/11 11:58:23;;;;;;;5.50;4.07;;;23.30;92.70;;;;;;5115447;27;20962;-64
2021/08/11 12:00:59;;;;;;;4.67;4.30;;;23.30;93.40;;;;;;5115034;27;20955;-64
2021/08/11 12:03:37;;;;;;;6.30;4.10;;;23.30;92.70;;;;;;5115433;27;20457;-64
2021/08/11 12:06:05;;;;;;;4.27;3.97;;;23.30;92.50;;;;;;5115418;27;21169;-64
2021/08/11 12:08:32;;;;;;;4.37;3.97;;;23.30;92.60;;;;;;5115511;27;20479;-64
2021/08/11 12:11:06;;;;;;;4.80;4.30;;;23.30;92.40;;;;;;5115075;27;20966;-63
2021/08/11 12:13:44;;;;;;;4.60;4.20;;;23.30;92.50;;;;;;5115445;27;20475;-63
2021/08/11 12:16:14;;;;;;;6.00;4.10;;;23.40;92.40;;;;;;5115265;27;20801;-63
2021/08/11 12:18:42;;;;;;;4.67;4.27;;;23.40;92.20;;;;;;5115251;27;20771;-63
2021/08/11 12:21:11;;;;;;;4.90;4.13;;;23.50;92.20;;;;;;5113941;27;20540;-63
2021/08/11 12:23:38;;;;;;;4.70;4.30;;;23.60;92.30;;;;;;5115239;27;20468;-63
2021/08/11 12:26:07;;;;;;;4.43;4.03;;;23.70;92.20;;;;;;5123934;27;20474;-64
2021/08/11 12:28:37;;;;;;;6.23;4.63;;;23.80;92.10;;;;;;5135560;27;20463;-64
2021/08/11 12:31:06;;;;;;;5.17;4.20;;;23.80;92.40;;;;;;5121981;27;20974;-64
2021/08/11 12:33:37;;;;;;;6.83;4.83;;;23.80;92.10;;;;;;5115096;27;20464;-64
2021/08/11 12:36:05;;;;;;;4.50;4.20;;;23.90;92.20;;;;;;5114611;27;20464;-64
2021/08/11 12:38:35;;;;;;;4.30;4.00;;;23.90;92.20;;;;;;5114800;27;20487;-64
2021/08/11 12:41:16;;;;;;;3.93;3.63;;;23.90;92.50;;;;;;5114415;27;20465;-64
2021/08/11 12:43:43;;;;;;;3.77;3.47;;;23.80;92.70;;;;;;5114868;27;20479;-63
2021/08/11 12:46:11;;;;;;;5.10;4.70;;;23.80;92.90;;;;;;5114269;27;20478;-63
2021/08/11 12:48:39;;;;;;;4.40;3.80;;;23.80;92.70;;;;;;5114508;27;20479;-63
2021/08/11 12:51:20;;;;;;;5.17;4.67;;;23.80;92.60;;;;;;5114351;27;20465;-64
2021/08/11 12:54:02;;;;;;;4.87;4.37;;;23.90;92.70;;;;;;5114552;27;20475;-64
2021/08/11 12:56:29;;;;;;;4.90;4.50;;;23.80;92.90;;;;;;5114476;27;20448;-63